Time;durP1;ratioP1;P1;durP2;ratioP2;P2;SDS_P1;SDS_P2;PMS_P1;PMS_P2;Temp;Humidity;BMP_temperature;BMP_pressure;BME280_temperature;BME280_humidity;BME280_pressure;Samples;Min_cycle;Max_cycle;Signal;HPM_P1;HPM_P2
2023/03/23 00:02:27;;;;;;;8.45;3.50;;;17.00;34.90;;;;;;5054362;28;20203;-49
2023/03/23 00:04:53;;;;;;;7.00;3.13;;;17.00;35.10;;;;;;5054296;28;20613;-50
2023/03/23 00:07:21;;;;;;;3.38;3.08;;;17.00;35.20;;;;;;5054318;28;20207;-50
2023/03/23 00:09:53;;;;;;;3.33;2.40;;;17.00;35.20;;;;;;5054301;28;20243;-49
2023/03/23 00:12:34;;;;;;;6.32;2.80;;;17.00;35.40;;;;;;5054040;28;20724;-50
2023/03/23 00:15:05;;;;;;;4.68;3.10;;;17.00;35.20;;;;;;5054112;28;20185;-49
2023/03/23 00:17:32;;;;;;;3.78;2.92;;;17.00;35.40;;;;;;5053674;28;20193;-49
2023/03/23 00:20:00;;;;;;;3.50;3.05;;;17.00;35.30;;;;;;5053959;28;20555;-49
2023/03/23 00:22:27;;;;;;;6.18;3.28;;;17.00;35.30;;;;;;5054168;28;20174;-49
2023/03/23 00:24:53;;;;;;;3.88;2.90;;;17.00;35.20;;;;;;5053560;28;20718;-50
2023/03/23 00:27:21;;;;;;;5.72;3.75;;;17.10;35.40;;;;;;5053612;28;20723;-50
2023/03/23 00:29:52;;;;;;;6.68;4.18;;;17.10;35.30;;;;;;5053818;28;20188;-50
2023/03/23 00:32:20;;;;;;;5.53;3.08;;;17.20;35.30;;;;;;5054091;28;20196;-49
2023/03/23 00:34:48;;;;;;;2.95;2.60;;;17.30;35.10;;;;;;5053986;28;20218;-50
2023/03/23 00:37:16;;;;;;;3.83;2.55;;;17.30;35.10;;;;;;5053868;28;20193;-50
2023/03/23 00:39:45;;;;;;;3.95;3.20;;;17.30;35.10;;;;;;5053677;28;20238;-50
2023/03/23 00:42:13;;;;;;;3.17;2.63;;;17.30;35.20;;;;;;5054058;28;20538;-50
2023/03/23 00:44:39;;;;;;;3.90;2.17;;;17.30;35.10;;;;;;5053867;28;20165;-50
2023/03/23 00:47:07;;;;;;;2.90;1.88;;;17.30;34.60;;;;;;5053522;28;20199;-50
2023/03/23 00:49:34;;;;;;;3.83;2.25;;;17.30;33.80;;;;;;5053936;28;20177;-50
2023/03/23 00:52:01;;;;;;;3.00;2.00;;;17.40;33.40;;;;;;5053544;28;20285;-48
2023/03/23 00:54:27;;;;;;;1.70;1.30;;;17.50;32.70;;;;;;5053427;28;20169;-49
2023/03/23 00:56:54;;;;;;;2.63;1.00;;;17.60;32.50;;;;;;5052987;28;20161;-50
2023/03/23 00:59:20;;;;;;;3.35;1.20;;;17.70;32.20;;;;;;5053490;28;20178;-50
2023/03/23 01:01:46;;;;;;;2.30;1.05;;;17.90;31.70;;;;;;5053259;28;20180;-49
2023/03/23 01:04:12;;;;;;;3.22;1.83;;;18.00;32.20;;;;;;5052943;28;20657;-50
2023/03/23 01:06:42;;;;;;;1.90;1.43;;;18.10;31.50;;;;;;5052170;28;20199;-50
2023/03/23 01:09:10;;;;;;;6.80;1.52;;;18.20;30.80;;;;;;5053238;28;20444;-50
2023/03/23 01:11:37;;;;;;;4.22;1.23;;;18.20;31.70;;;;;;5052930;28;20209;-50
2023/03/23 01:14:03;;;;;;;2.10;1.10;;;18.20;32.30;;;;;;5052858;28;20242;-50
2023/03/23 01:16:29;;;;;;;2.20;1.20;;;18.20;32.60;;;;;;5052657;28;20180;-50
2023/03/23 01:18:55;;;;;;;4.90;1.80;;;18.10;33.10;;;;;;5053089;28;20198;-49
2023/03/23 01:21:21;;;;;;;6.57;1.60;;;18.00;33.10;;;;;;5052995;28;20185;-50
2023/03/23 01:23:48;;;;;;;2.60;1.85;;;18.00;33.40;;;;;;5053033;28;20181;-50
2023/03/23 01:26:16;;;;;;;3.38;2.00;;;17.90;33.60;;;;;;5052443;28;20660;-50
2023/03/23 01:28:43;;;;;;;2.17;1.52;;;17.90;33.90;;;;;;5052653;28;20221;-50
2023/03/23 01:31:12;;;;;;;2.30;1.30;;;17.80;33.70;;;;;;5052789;28;20553;-50
2023/03/23 01:33:39;;;;;;;1.83;1.27;;;17.80;34.00;;;;;;5052596;28;20549;-50
2023/03/23 01:36:16;;;;;;;2.55;1.90;;;17.80;34.00;;;;;;5052371;28;20169;-52
2023/03/23 01:38:44;;;;;;;4.40;2.10;;;17.80;34.00;;;;;;5052564;28;20279;-49
2023/03/23 01:41:11;;;;;;;3.03;2.42;;;17.80;34.10;;;;;;5052699;28;20188;-50
2023/03/23 01:44:03;;;;;;;5.25;2.28;;;17.70;34.20;;;;;;5052641;28;20588;-50
2023/03/23 01:46:32;;;;;;;6.43;2.40;;;17.70;34.30;;;;;;5052498;28;20255;-51
2023/03/23 01:49:08;;;;;;;2.10;1.55;;;17.60;34.30;;;;;;5052502;28;20204;-50
2023/03/23 01:51:40;;;;;;;3.33;1.85;;;17.60;34.30;;;;;;5052257;28;20660;-51
2023/03/23 01:54:10;;;;;;;2.70;2.15;;;17.60;34.30;;;;;;5052528;28;20165;-50
2023/03/23 01:56:41;;;;;;;2.47;1.77;;;17.60;34.40;;;;;;5051973;28;20273;-50
2023/03/23 01:59:08;;;;;;;2.85;1.88;;;17.60;34.50;;;;;;5052567;28;20165;-50
2023/03/23 02:01:38;;;;;;;2.85;2.17;;;17.50;34.50;;;;;;5052164;28;20173;-50
2023/03/23 02:04:05;;;;;;;2.70;1.80;;;17.50;34.40;;;;;;5052083;28;20239;-48
2023/03/23 02:06:31;;;;;;;2.28;1.30;;;17.50;34.50;;;;;;5051851;28;20210;-50
2023/03/23 02:08:58;;;;;;;2.60;1.77;;;17.50;34.50;;;;;;5052029;28;20193;-50
2023/03/23 02:11:23;;;;;;;2.65;1.85;;;17.50;34.50;;;;;;5051869;28;20224;-50
2023/03/23 02:13:50;;;;;;;4.03;1.50;;;17.50;34.40;;;;;;5052070;28;20173;-48
2023/03/23 02:16:43;;;;;;;2.70;1.55;;;17.50;34.50;;;;;;5051992;28;20415;-51
2023/03/23 02:19:15;;;;;;;1.58;1.25;;;17.40;34.50;;;;;;5051990;28;20518;-48
2023/03/23 02:21:50;;;;;;;1.90;1.40;;;17.40;34.90;;;;;;5052062;28;20253;-51
2023/03/23 02:24:15;;;;;;;2.10;1.60;;;17.40;34.20;;;;;;5052115;28;20200;-51
2023/03/23 02:27:11;;;;;;;3.23;1.60;;;17.40;34.20;;;;;;5051536;28;20223;-48
2023/03/23 02:29:53;;;;;;;2.20;2.00;;;17.40;34.10;;;;;;5052013;28;20204;-48
2023/03/23 02:32:21;;;;;;;1.70;1.40;;;17.40;34.00;;;;;;5052134;28;20172;-50
2023/03/23 02:35:18;;;;;;;2.47;1.33;;;17.30;34.10;;;;;;5051729;28;20169;-50
2023/03/23 02:37:51;;;;;;;5.03;2.10;;;17.40;34.20;;;;;;5051064;28;20280;-47
2023/03/23 02:40:20;;;;;;;2.35;1.75;;;17.40;34.10;;;;;;5051727;28;20230;-50
2023/03/23 02:42:51;;;;;;;1.80;1.15;;;17.40;34.10;;;;;;5051738;28;20173;-50
2023/03/23 02:45:19;;;;;;;4.85;2.10;;;17.40;34.10;;;;;;5051711;28;20162;-50
2023/03/23 02:47:47;;;;;;;2.38;1.52;;;17.40;34.00;;;;;;5051629;28;20202;-49
2023/03/23 02:50:16;;;;;;;2.00;1.20;;;17.30;34.00;;;;;;5051605;28;20197;-50
2023/03/23 02:52:44;;;;;;;2.08;1.25;;;17.40;33.90;;;;;;5051665;28;20169;-49
2023/03/23 02:55:13;;;;;;;4.05;1.33;;;17.30;33.90;;;;;;5051525;28;20181;-48
2023/03/23 02:57:40;;;;;;;2.17;1.48;;;17.40;33.80;;;;;;5051700;28;20564;-51
2023/03/23 03:00:10;;;;;;;1.75;1.48;;;17.40;33.80;;;;;;5051618;28;20696;-49
2023/03/23 03:02:42;;;;;;;1.75;1.10;;;17.30;33.80;;;;;;5051908;28;20164;-51
2023/03/23 03:05:36;;;;;;;2.22;1.50;;;17.40;33.80;;;;;;5051739;28;20158;-51
2023/03/23 03:08:33;;;;;;;2.70;1.38;;;17.40;33.70;;;;;;5051170;28;20692;-49
2023/03/23 03:11:08;;;;;;;2.30;1.60;;;17.30;33.60;;;;;;5051374;28;20201;-48
2023/03/23 03:13:47;;;;;;;2.28;1.83;;;17.30;33.70;;;;;;5051433;28;20169;-49
2023/03/23 03:16:44;;;;;;;1.92;1.58;;;17.30;33.60;;;;;;5051208;28;20533;-49
2023/03/23 03:19:31;;;;;;;1.92;1.23;;;17.30;33.50;;;;;;5051816;28;20201;-48
2023/03/23 03:21:58;;;;;;;2.08;1.15;;;17.30;33.60;;;;;;5051323;28;20673;-51
2023/03/23 03:24:28;;;;;;;3.45;1.77;;;17.30;33.70;;;;;;5051412;28;20715;-49
2023/03/23 03:26:57;;;;;;;3.28;1.75;;;17.40;33.50;;;;;;5066395;28;20589;-49
2023/03/23 03:29:45;;;;;;;2.00;1.50;;;17.40;33.50;;;;;;5053792;28;20256;-50
2023/03/23 03:32:22;;;;;;;4.60;1.60;;;17.40;33.20;;;;;;5054825;28;20662;-50
2023/03/23 03:34:50;;;;;;;2.42;1.10;;;17.40;33.10;;;;;;5054840;28;20192;-47
2023/03/23 03:37:17;;;;;;;2.15;0.90;;;17.40;33.20;;;;;;5054557;28;20209;-48
2023/03/23 03:39:43;;;;;;;2.33;1.40;;;17.40;33.00;;;;;;5054938;28;20507;-51
2023/03/23 03:42:08;;;;;;;2.00;1.50;;;17.40;33.10;;;;;;5054778;28;20246;-50
2023/03/23 03:44:34;;;;;;;2.30;1.57;;;17.40;33.10;;;;;;5054798;28;20166;-51
2023/03/23 03:47:00;;;;;;;1.90;1.20;;;17.40;33.00;;;;;;5054217;28;20193;-50
2023/03/23 03:49:26;;;;;;;4.30;1.90;;;17.40;33.00;;;;;;5054601;28;20177;-52
2023/03/23 03:51:52;;;;;;;1.48;1.20;;;17.50;33.10;;;;;;5054684;28;20866;-52
2023/03/23 03:54:18;;;;;;;4.63;1.05;;;17.50;33.50;;;;;;5054411;28;20564;-49
2023/03/23 03:56:45;;;;;;;2.07;1.07;;;17.50;33.10;;;;;;5054443;28;20174;-49
2023/03/23 03:59:12;;;;;;;1.70;1.10;;;17.50;33.10;;;;;;5054675;28;20560;-49
2023/03/23 04:01:39;;;;;;;2.50;1.60;;;17.40;33.00;;;;;;5054267;28;20612;-49
2023/03/23 04:04:06;;;;;;;2.08;1.20;;;17.50;33.00;;;;;;5054525;28;20173;-50
2023/03/23 04:06:35;;;;;;;1.60;1.40;;;17.50;32.80;;;;;;5054211;28;20185;-49
2023/03/23 04:09:05;;;;;;;5.00;1.55;;;17.50;33.00;;;;;;5054090;28;20663;-51
2023/03/23 04:11:31;;;;;;;2.72;1.25;;;17.50;33.00;;;;;;5054257;28;20201;-49
2023/03/23 04:13:57;;;;;;;3.23;1.60;;;17.60;33.00;;;;;;5054196;28;20653;-51
2023/03/23 04:16:22;;;;;;;2.30;1.33;;;17.60;33.00;;;;;;5054127;28;20825;-50
2023/03/23 04:18:49;;;;;;;4.50;1.60;;;17.60;33.00;;;;;;5053940;28;20189;-49
2023/03/23 04:21:15;;;;;;;2.33;1.38;;;17.70;32.90;;;;;;5054275;28;20180;-51
2023/03/23 04:23:41;;;;;;;2.10;1.55;;;17.70;32.80;;;;;;5054214;28;20219;-52
2023/03/23 04:26:07;;;;;;;4.10;1.20;;;17.70;32.90;;;;;;5053736;28;20208;-50
2023/03/23 04:28:33;;;;;;;2.88;1.30;;;17.70;32.90;;;;;;5053635;28;20239;-51
2023/03/23 04:31:00;;;;;;;2.33;1.40;;;17.70;33.00;;;;;;5053923;28;20266;-49
2023/03/23 04:33:28;;;;;;;2.40;1.63;;;17.80;32.90;;;;;;5053902;28;20202;-50
2023/03/23 04:35:56;;;;;;;2.78;1.85;;;17.80;33.00;;;;;;5053827;28;20200;-51
2023/03/23 04:38:24;;;;;;;2.00;1.30;;;17.70;33.10;;;;;;5053530;28;20196;-52
2023/03/23 04:40:51;;;;;;;3.15;1.55;;;17.70;33.10;;;;;;5052557;28;20169;-49
2023/03/23 04:43:21;;;;;;;2.10;1.90;;;17.60;33.10;;;;;;5053528;28;20169;-51
2023/03/23 04:45:55;;;;;;;2.83;2.05;;;17.60;33.10;;;;;;5053713;28;20227;-51
2023/03/23 04:48:25;;;;;;;3.70;1.60;;;17.60;33.20;;;;;;5053276;28;20184;-51
2023/03/23 04:50:52;;;;;;;2.80;2.03;;;17.60;33.10;;;;;;5053463;28;20268;-51
2023/03/23 04:53:18;;;;;;;3.72;2.47;;;17.60;33.30;;;;;;5053482;28;20162;-51
2023/03/23 04:55:44;;;;;;;2.67;2.10;;;17.60;33.20;;;;;;5053257;28;20166;-49
2023/03/23 04:58:14;;;;;;;3.15;2.35;;;17.60;33.00;;;;;;5053199;28;20197;-51
2023/03/23 05:00:43;;;;;;;3.90;2.30;;;17.60;33.10;;;;;;5053504;28;20223;-49
2023/03/23 05:03:16;;;;;;;3.20;2.25;;;17.50;33.20;;;;;;5053022;28;20179;-49
2023/03/23 05:05:42;;;;;;;3.65;2.00;;;17.60;33.30;;;;;;5053271;28;20185;-52
2023/03/23 05:08:07;;;;;;;3.67;1.90;;;17.50;33.30;;;;;;5052802;28;20221;-52
2023/03/23 05:10:33;;;;;;;3.60;2.10;;;17.60;33.30;;;;;;5052932;28;20692;-51
2023/03/23 05:12:59;;;;;;;2.90;1.83;;;17.50;33.30;;;;;;5053209;28;20192;-51
2023/03/23 05:15:24;;;;;;;3.17;2.10;;;17.50;33.40;;;;;;5053133;28;20196;-51
2023/03/23 05:17:54;;;;;;;2.50;1.90;;;17.60;33.30;;;;;;5052584;28;20205;-48
2023/03/23 05:20:20;;;;;;;3.50;2.00;;;17.60;33.30;;;;;;5052927;28;20179;-51
2023/03/23 05:22:49;;;;;;;3.03;2.13;;;17.60;33.10;;;;;;5053025;28;20280;-48
2023/03/23 05:25:18;;;;;;;3.08;2.17;;;17.60;33.30;;;;;;5052532;28;20189;-51
2023/03/23 05:27:48;;;;;;;3.33;2.33;;;17.50;33.40;;;;;;5052603;28;20209;-51
2023/03/23 05:30:16;;;;;;;2.55;1.85;;;17.50;33.30;;;;;;5052562;28;20646;-52
2023/03/23 05:32:44;;;;;;;4.35;2.00;;;17.50;33.40;;;;;;5052859;28;20196;-51
2023/03/23 05:35:12;;;;;;;3.13;2.08;;;17.50;33.50;;;;;;5052562;28;20208;-49
2023/03/23 05:37:38;;;;;;;2.85;1.77;;;17.50;33.30;;;;;;5052179;28;20193;-52
2023/03/23 05:40:06;;;;;;;4.10;2.33;;;17.50;33.50;;;;;;5052749;28;20653;-52
2023/03/23 05:42:35;;;;;;;5.30;2.45;;;17.60;33.40;;;;;;5052515;28;20620;-50
2023/03/23 05:45:05;;;;;;;4.13;2.03;;;17.60;33.30;;;;;;5052397;28;20603;-52
2023/03/23 05:47:31;;;;;;;5.97;2.25;;;17.60;33.40;;;;;;5052035;28;20201;-50
2023/03/23 05:49:58;;;;;;;3.88;2.00;;;17.60;33.50;;;;;;5052465;28;20265;-50
2023/03/23 05:52:24;;;;;;;3.53;2.50;;;17.60;33.40;;;;;;5051955;28;20234;-52
2023/03/23 05:54:50;;;;;;;4.57;2.40;;;17.70;33.50;;;;;;5052497;28;20177;-50
2023/03/23 05:57:17;;;;;;;4.95;3.08;;;17.70;33.50;;;;;;5052052;28;20193;-51
2023/03/23 05:59:44;;;;;;;4.00;2.25;;;17.70;33.50;;;;;;5052293;28;20177;-51
2023/03/23 06:02:10;;;;;;;4.63;2.78;;;17.80;33.30;;;;;;5052171;28;20180;-53
2023/03/23 06:04:37;;;;;;;5.47;3.33;;;17.80;33.40;;;;;;5052000;28;20518;-51
2023/03/23 06:07:04;;;;;;;4.18;1.90;;;17.80;33.30;;;;;;5051921;28;20207;-51
2023/03/23 06:09:30;;;;;;;5.30;2.60;;;17.80;33.40;;;;;;5052060;28;20173;-52
2023/03/23 06:11:56;;;;;;;6.57;3.00;;;17.80;33.40;;;;;;5052058;28;20236;-50
2023/03/23 06:14:22;;;;;;;2.42;2.20;;;17.80;33.30;;;;;;5052022;28;20181;-51
2023/03/23 06:16:48;;;;;;;7.10;2.75;;;17.80;33.20;;;;;;5051859;28;20173;-51
2023/03/23 06:19:15;;;;;;;3.80;2.60;;;17.90;33.20;;;;;;5051910;28;20549;-50
2023/03/23 06:21:41;;;;;;;6.28;3.40;;;17.90;33.10;;;;;;5051878;28;20408;-50
2023/03/23 06:24:07;;;;;;;6.00;3.13;;;18.00;32.90;;;;;;5051953;28;20169;-51
2023/03/23 06:26:38;;;;;;;3.97;2.30;;;18.00;33.10;;;;;;5051706;28;20196;-52
2023/03/23 06:29:10;;;;;;;4.97;2.15;;;18.00;33.10;;;;;;5051912;28;20196;-49
2023/03/23 06:31:38;;;;;;;4.85;2.67;;;18.10;32.80;;;;;;5051609;28;20208;-50
2023/03/23 06:34:04;;;;;;;4.55;2.35;;;18.10;32.70;;;;;;5051957;28;20180;-52
2023/03/23 06:36:30;;;;;;;4.33;1.90;;;18.20;32.30;;;;;;5051582;28;20166;-52
2023/03/23 06:38:56;;;;;;;4.83;2.67;;;18.20;31.00;;;;;;5051559;28;20214;-49
2023/03/23 06:41:22;;;;;;;4.03;1.77;;;18.20;32.00;;;;;;5051674;28;20437;-50
2023/03/23 06:43:47;;;;;;;3.30;2.10;;;18.20;31.90;;;;;;5051808;28;20419;-52
2023/03/23 06:46:13;;;;;;;2.60;1.60;;;18.20;31.60;;;;;;5051297;28;20670;-51
2023/03/23 06:48:39;;;;;;;3.20;1.67;;;18.30;31.50;;;;;;5051883;28;20197;-51
2023/03/23 06:51:05;;;;;;;3.07;1.50;;;18.40;31.10;;;;;;5051750;28;20201;-50
2023/03/23 06:53:31;;;;;;;4.35;1.50;;;18.50;30.90;;;;;;5051647;28;20491;-52
2023/03/23 06:55:57;;;;;;;2.23;1.47;;;18.60;31.00;;;;;;5051752;28;20260;-50
2023/03/23 06:58:23;;;;;;;2.90;1.37;;;18.60;31.20;;;;;;5051656;28;20192;-52
2023/03/23 07:00:56;;;;;;;1.70;1.35;;;18.70;31.00;;;;;;5051333;28;20259;-50
2023/03/23 07:03:23;;;;;;;3.85;2.25;;;18.80;30.60;;;;;;5052607;28;20181;-48
2023/03/23 07:05:49;;;;;;;6.18;1.80;;;18.80;31.10;;;;;;5055307;28;20182;-52
2023/03/23 07:08:15;;;;;;;1.70;1.23;;;18.90;31.10;;;;;;5055054;28;20213;-52
2023/03/23 07:10:41;;;;;;;3.53;1.80;;;18.90;30.90;;;;;;5055179;28;20193;-49
2023/03/23 07:13:07;;;;;;;3.90;1.80;;;19.00;31.10;;;;;;5055231;28;20396;-51
2023/03/23 07:15:33;;;;;;;4.33;1.70;;;19.10;30.70;;;;;;5055109;28;20411;-50
2023/03/23 07:17:59;;;;;;;2.57;1.67;;;19.20;30.50;;;;;;5054784;28;20442;-50
2023/03/23 07:20:26;;;;;;;2.25;1.80;;;19.20;30.40;;;;;;5055199;28;20533;-50
2023/03/23 07:22:53;;;;;;;7.07;1.90;;;19.40;30.40;;;;;;5055087;28;20199;-52
2023/03/23 07:25:19;;;;;;;1.95;1.42;;;19.50;29.90;;;;;;5054917;28;20263;-50
2023/03/23 07:27:46;;;;;;;2.20;1.50;;;19.40;30.00;;;;;;5054799;28;20221;-51
2023/03/23 07:30:13;;;;;;;2.28;1.80;;;19.40;30.30;;;;;;5055070;28;20177;-53
2023/03/23 07:32:39;;;;;;;3.47;1.70;;;19.50;30.00;;;;;;5054911;28;20538;-49
2023/03/23 07:35:05;;;;;;;2.43;1.80;;;19.50;29.90;;;;;;5054884;28;20625;-50
2023/03/23 07:37:32;;;;;;;3.83;1.60;;;19.50;30.10;;;;;;5054815;28;20240;-51
2023/03/23 07:39:58;;;;;;;3.92;1.75;;;19.50;29.50;;;;;;5055231;28;20407;-49
2023/03/23 07:42:24;;;;;;;2.10;1.90;;;19.50;29.70;;;;;;5054899;28;20260;-52
2023/03/23 07:44:49;;;;;;;2.23;1.50;;;19.40;29.60;;;;;;5054997;28;20763;-51
2023/03/23 07:47:17;;;;;;;1.87;1.23;;;19.40;30.10;;;;;;5054614;28;20844;-50
2023/03/23 07:49:43;;;;;;;2.10;1.80;;;19.50;30.00;;;;;;5054684;28;20419;-53
2023/03/23 07:52:10;;;;;;;2.33;1.87;;;19.40;29.90;;;;;;5054410;28;20205;-50
2023/03/23 07:54:36;;;;;;;3.60;1.52;;;19.50;30.50;;;;;;5054492;28;20499;-53
2023/03/23 07:57:03;;;;;;;5.53;1.43;;;19.60;30.10;;;;;;5053931;28;20284;-49
2023/03/23 07:59:28;;;;;;;3.45;1.90;;;19.60;30.00;;;;;;5054466;28;20491;-50
2023/03/23 08:01:54;;;;;;;2.07;1.43;;;19.70;29.70;;;;;;5054680;28;20705;-49
2023/03/23 08:04:20;;;;;;;3.10;2.00;;;19.50;30.30;;;;;;5054284;28;20177;-49
2023/03/23 08:06:46;;;;;;;3.10;1.93;;;19.60;30.00;;;;;;5053961;28;20642;-53
2023/03/23 08:09:13;;;;;;;2.65;1.48;;;19.60;30.30;;;;;;5054167;28;20653;-49
2023/03/23 08:11:39;;;;;;;4.43;1.60;;;19.60;30.10;;;;;;5053906;28;20748;-50
2023/03/23 08:14:05;;;;;;;3.97;1.50;;;19.60;30.20;;;;;;5053904;28;20223;-51
2023/03/23 08:16:32;;;;;;;2.05;1.55;;;19.50;30.30;;;;;;5054180;28;20252;-50
2023/03/23 08:19:00;;;;;;;2.67;2.08;;;19.40;30.30;;;;;;5054037;28;20897;-51
2023/03/23 08:21:26;;;;;;;2.55;1.60;;;19.50;30.40;;;;;;5054285;28;20189;-52
2023/03/23 08:23:52;;;;;;;2.22;1.90;;;19.60;30.30;;;;;;5054000;28;20188;-49
2023/03/23 08:26:18;;;;;;;3.90;1.80;;;19.60;30.00;;;;;;5052375;28;20549;-50
2023/03/23 08:28:44;;;;;;;3.77;1.60;;;19.60;30.30;;;;;;5054012;28;20808;-52
2023/03/23 08:31:13;;;;;;;2.10;1.50;;;19.50;30.30;;;;;;5053905;28;20209;-50
2023/03/23 08:33:39;;;;;;;3.38;2.25;;;19.40;30.80;;;;;;5053805;28;20172;-50
2023/03/23 08:36:06;;;;;;;2.17;1.80;;;19.50;31.00;;;;;;5053666;28;20641;-50
2023/03/23 08:38:32;;;;;;;2.13;1.83;;;19.50;30.60;;;;;;5053413;28;20232;-49
2023/03/23 08:41:04;;;;;;;3.95;1.80;;;19.50;31.10;;;;;;5053882;28;20272;-51
2023/03/23 08:43:31;;;;;;;2.75;1.40;;;19.50;30.50;;;;;;5053862;28;20162;-50
2023/03/23 08:45:57;;;;;;;2.83;1.77;;;19.30;31.00;;;;;;5053512;28;20169;-50
2023/03/23 08:48:23;;;;;;;3.93;1.50;;;19.30;31.10;;;;;;5053192;28;20195;-53
2023/03/23 08:50:49;;;;;;;4.37;1.73;;;19.30;31.20;;;;;;5053301;28;20284;-49
2023/03/23 08:53:16;;;;;;;7.00;2.25;;;19.20;31.30;;;;;;5053502;28;20172;-49
2023/03/23 08:55:42;;;;;;;4.45;1.60;;;19.10;31.60;;;;;;5053418;28;20223;-51
2023/03/23 08:58:09;;;;;;;2.25;1.30;;;19.20;31.70;;;;;;5053165;28;20199;-52
2023/03/23 09:00:35;;;;;;;2.83;1.63;;;19.40;31.80;;;;;;5053454;28;20180;-48
2023/03/23 09:03:01;;;;;;;2.00;1.70;;;19.40;32.10;;;;;;5053496;28;20203;-51
2023/03/23 09:05:28;;;;;;;4.40;1.95;;;19.50;32.00;;;;;;5053169;28;20541;-52
2023/03/23 09:07:59;;;;;;;2.30;2.10;;;19.50;32.50;;;;;;5052754;28;20260;-49
2023/03/23 09:10:29;;;;;;;4.15;2.45;;;19.50;32.10;;;;;;5053217;28;20243;-52
2023/03/23 09:12:56;;;;;;;2.95;2.13;;;19.40;32.30;;;;;;5052849;28;20177;-52
2023/03/23 09:15:22;;;;;;;4.20;2.28;;;19.20;33.00;;;;;;5052946;28;20708;-49
2023/03/23 09:17:50;;;;;;;4.03;2.05;;;19.40;33.20;;;;;;5052904;28;20323;-50
2023/03/23 09:20:20;;;;;;;2.60;1.60;;;19.40;33.50;;;;;;5052867;28;20170;-51
2023/03/23 09:22:49;;;;;;;3.15;2.40;;;19.30;33.30;;;;;;5052766;28;20195;-49
2023/03/23 09:25:20;;;;;;;3.38;2.25;;;19.20;34.10;;;;;;5052802;28;20189;-51
2023/03/23 09:27:56;;;;;;;4.40;2.78;;;19.20;34.70;;;;;;5051992;28;20201;-51
2023/03/23 09:30:25;;;;;;;2.67;1.63;;;19.20;35.00;;;;;;5052690;28;20184;-49
2023/03/23 09:32:52;;;;;;;3.45;1.90;;;19.20;35.30;;;;;;5052807;28;20173;-51
2023/03/23 09:35:21;;;;;;;2.83;1.95;;;19.20;35.40;;;;;;5052611;28;20264;-52
2023/03/23 09:37:48;;;;;;;3.30;1.60;;;19.20;35.60;;;;;;5052435;28;20288;-49
2023/03/23 09:40:24;;;;;;;3.03;2.40;;;19.20;36.50;;;;;;5052540;28;20176;-50
2023/03/23 09:43:14;;;;;;;3.88;2.22;;;19.20;36.40;;;;;;5052527;28;20165;-47
2023/03/23 09:45:46;;;;;;;4.45;2.95;;;19.20;36.30;;;;;;5052371;28;20170;-49
2023/03/23 09:48:37;;;;;;;2.75;1.40;;;19.20;36.90;;;;;;5052156;28;20208;-49
2023/03/23 09:51:23;;;;;;;2.60;2.35;;;19.10;37.40;;;;;;5052152;28;20564;-51
2023/03/23 09:53:54;;;;;;;3.03;1.90;;;19.10;37.30;;;;;;5052054;28;20231;-52
2023/03/23 09:56:22;;;;;;;1.92;1.60;;;18.90;37.80;;;;;;5052367;28;20325;-48
2023/03/23 09:58:53;;;;;;;3.00;2.35;;;18.90;37.90;;;;;;5052149;28;20190;-48
2023/03/23 10:01:36;;;;;;;3.03;2.05;;;19.00;38.50;;;;;;5052132;28;20189;-53
2023/03/23 10:04:12;;;;;;;2.53;1.63;;;19.10;38.00;;;;;;5052707;28;20171;-49
2023/03/23 10:06:38;;;;;;;2.95;1.98;;;19.20;37.90;;;;;;5052272;28;20181;-48
2023/03/23 10:09:05;;;;;;;3.10;1.90;;;19.30;37.60;;;;;;5052304;28;20171;-48
2023/03/23 10:11:39;;;;;;;3.10;1.80;;;19.50;37.70;;;;;;5052163;28;20669;-51
2023/03/23 10:14:17;;;;;;;1.98;1.55;;;19.50;37.60;;;;;;5052307;28;20185;-48
2023/03/23 10:17:03;;;;;;;3.03;2.00;;;19.40;37.20;;;;;;5051844;28;20515;-52
2023/03/23 10:19:45;;;;;;;1.90;1.65;;;19.30;37.70;;;;;;5051977;28;20157;-52
2023/03/23 10:22:15;;;;;;;2.95;1.65;;;19.40;36.80;;;;;;5052149;28;20154;-51
2023/03/23 10:25:24;;;;;;;2.67;1.65;;;19.40;37.20;;;;;;5051925;28;20181;-50
2023/03/23 10:28:07;;;;;;;2.10;1.67;;;19.30;36.40;;;;;;5051351;28;20213;-50
2023/03/23 10:30:42;;;;;;;1.92;1.60;;;19.20;37.10;;;;;;5052061;28;20205;-49
2023/03/23 10:33:20;;;;;;;2.78;1.58;;;19.40;36.40;;;;;;5052120;28;20153;-49
2023/03/23 10:35:54;;;;;;;2.85;1.70;;;19.40;36.70;;;;;;5052028;28;20511;-51
2023/03/23 10:38:29;;;;;;;2.40;1.40;;;19.50;36.90;;;;;;5052603;28;20285;-50
2023/03/23 10:41:17;;;;;;;2.80;1.75;;;19.60;35.90;;;;;;5056215;28;20687;-49
2023/03/23 10:43:44;;;;;;;1.77;1.42;;;19.60;35.50;;;;;;5056166;28;20162;-49
2023/03/23 10:46:31;;;;;;;2.60;1.27;;;19.60;36.00;;;;;;5055492;28;20680;-50
2023/03/23 10:49:01;;;;;;;3.00;1.60;;;19.70;36.20;;;;;;5055781;28;20193;-50
2023/03/23 10:51:41;;;;;;;5.03;1.65;;;19.70;36.20;;;;;;5055640;28;20200;-49
2023/03/23 10:54:07;;;;;;;3.22;2.00;;;19.80;36.70;;;;;;5055765;28;20157;-52
2023/03/23 10:56:44;;;;;;;2.67;1.90;;;19.90;35.80;;;;;;5055350;28;20537;-48
2023/03/23 10:59:19;;;;;;;3.58;1.58;;;20.00;35.90;;;;;;5055490;28;20650;-52
2023/03/23 11:01:50;;;;;;;3.50;1.90;;;20.00;35.80;;;;;;5055559;28;20516;-49
2023/03/23 11:04:17;;;;;;;3.83;2.00;;;20.10;35.90;;;;;;5055567;28;20180;-50
2023/03/23 11:06:52;;;;;;;2.35;1.58;;;20.10;36.00;;;;;;5055095;28;20177;-51
2023/03/23 11:09:20;;;;;;;3.67;1.88;;;20.20;34.90;;;;;;5055306;28;20161;-50
2023/03/23 11:11:51;;;;;;;1.90;1.27;;;20.10;35.20;;;;;;5055216;28;20205;-50
2023/03/23 11:14:27;;;;;;;2.13;1.55;;;20.00;34.50;;;;;;5055359;28;20169;-52
2023/03/23 11:17:01;;;;;;;2.03;1.20;;;20.00;35.20;;;;;;5054936;28;20212;-50
2023/03/23 11:19:35;;;;;;;2.97;1.70;;;19.90;35.20;;;;;;5055166;28;20239;-50
2023/03/23 11:22:06;;;;;;;3.53;2.53;;;19.90;35.70;;;;;;5055414;28;20193;-50
2023/03/23 11:24:42;;;;;;;5.07;3.22;;;19.90;35.50;;;;;;5055168;28;20173;-50
2023/03/23 11:27:10;;;;;;;9.07;2.85;;;20.00;34.70;;;;;;5054751;28;20291;-51
2023/03/23 11:29:44;;;;;;;3.53;2.63;;;20.00;35.60;;;;;;5054780;28;20178;-52
2023/03/23 11:32:13;;;;;;;4.05;1.38;;;19.90;35.90;;;;;;5055092;28;20203;-50
2023/03/23 11:34:45;;;;;;;2.42;1.80;;;19.90;35.50;;;;;;5054850;28;20181;-49
2023/03/23 11:37:36;;;;;;;3.65;1.70;;;19.70;35.10;;;;;;5054917;28;20238;-52
2023/03/23 11:40:11;;;;;;;4.32;1.70;;;19.70;35.70;;;;;;5054985;28;20219;-50
2023/03/23 11:42:44;;;;;;;2.58;1.50;;;19.60;35.90;;;;;;5054846;28;20592;-50
2023/03/23 11:45:34;;;;;;;3.53;2.00;;;19.80;36.30;;;;;;5054858;28;20223;-50
2023/03/23 11:48:37;;;;;;;3.25;2.03;;;19.90;36.90;;;;;;5053929;28;20239;-50
2023/03/23 11:51:06;;;;;;;2.22;1.42;;;19.90;37.20;;;;;;5053431;28;20561;-52
2023/03/23 11:53:50;;;;;;;2.55;1.40;;;20.00;37.40;;;;;;5054634;28;20173;-51
2023/03/23 11:56:16;;;;;;;2.50;1.35;;;19.90;37.20;;;;;;5052936;28;20173;-53
2023/03/23 11:58:42;;;;;;;2.03;1.57;;;19.80;38.00;;;;;;5054155;28;20197;-52
2023/03/23 12:01:47;;;;;;;2.37;1.50;;;19.70;38.00;;;;;;5054371;28;20483;-49
2023/03/23 12:04:41;;;;;;;2.40;1.65;;;19.60;38.40;;;;;;5053131;28;20269;-49
2023/03/23 12:07:30;;;;;;;1.83;1.33;;;19.40;38.70;;;;;;5053908;28;20197;-50
2023/03/23 12:10:22;;;;;;;1.80;0.95;;;19.20;39.60;;;;;;5054197;28;20169;-52
2023/03/23 12:13:06;;;;;;;2.13;1.35;;;19.20;39.40;;;;;;5054458;28;20188;-52
2023/03/23 12:15:45;;;;;;;2.22;1.45;;;19.30;40.10;;;;;;5054163;28;20173;-49
2023/03/23 12:18:32;;;;;;;1.80;1.25;;;19.30;39.60;;;;;;5054038;28;20208;-51
2023/03/23 12:21:34;;;;;;;3.67;1.50;;;19.20;39.40;;;;;;5054134;28;20160;-50
2023/03/23 12:24:23;;;;;;;2.22;1.23;;;19.10;39.50;;;;;;5053986;28;20545;-50
2023/03/23 12:26:52;;;;;;;2.95;1.52;;;19.10;39.90;;;;;;5053619;28;20200;-53
2023/03/23 12:29:35;;;;;;;2.70;1.52;;;19.20;39.90;;;;;;5053833;28;20166;-49
2023/03/23 12:32:15;;;;;;;1.63;1.33;;;19.30;39.20;;;;;;5052531;28;20200;-51
2023/03/23 12:35:06;;;;;;;2.75;1.10;;;19.40;39.00;;;;;;5054047;28;20173;-51
2023/03/23 12:37:43;;;;;;;2.03;1.70;;;19.50;39.00;;;;;;5053541;28;20196;-52
2023/03/23 12:40:33;;;;;;;3.47;2.65;;;19.60;38.70;;;;;;5053737;28;20215;-52
2023/03/23 12:43:13;;;;;;;2.10;1.20;;;19.60;38.40;;;;;;5053798;28;20192;-52
2023/03/23 12:46:11;;;;;;;3.03;1.90;;;19.70;39.00;;;;;;5053624;28;20165;-52
2023/03/23 12:48:43;;;;;;;2.38;2.00;;;19.70;38.50;;;;;;5053429;28;20181;-51
2023/03/23 12:51:34;;;;;;;3.38;1.88;;;19.70;38.60;;;;;;5053338;28;20291;-52
2023/03/23 12:54:18;;;;;;;3.20;1.45;;;19.70;38.90;;;;;;5053621;28;20200;-52
2023/03/23 12:56:52;;;;;;;3.55;2.28;;;19.60;38.10;;;;;;5051751;28;20650;-49
2023/03/23 12:59:47;;;;;;;4.25;2.95;;;19.70;38.60;;;;;;5053491;28;20256;-50
2023/03/23 13:02:16;;;;;;;2.00;1.52;;;19.80;38.30;;;;;;5052414;28;20181;-52
2023/03/23 13:04:48;;;;;;;3.08;1.75;;;19.90;38.10;;;;;;5053178;28;20181;-49
2023/03/23 13:07:18;;;;;;;3.65;2.47;;;20.10;38.90;;;;;;5052888;28;20193;-50
2023/03/23 13:10:03;;;;;;;1.90;1.63;;;20.20;37.30;;;;;;5053006;28;20177;-50